Weather at Langkawi International Airport

Public forecast

Using degrees Celsius for public forecast. Weather courtesy of forecast.io.

Current aviation weather report (METAR) for Langkawi International Airport

Report is more than 2 hours old.

2024/06/24 21:00 (retrieved 5 hours ago)

WMKL 242100Z VRB01KT 9999 FEW026 26/24 Q1006

Aviation forecast (TAF) for Langkawi International Airport

Forecast is more than 6 hours old.

2024/06/24 18:00 (retrieved 8 hours ago)

TAF WMKL 241700Z 2418/2518 VRB03KT 9999 FEW026 PROB30 TEMPO 2418/2422 6000 TSRA FEW015CB SCT020